Current Conditions
Prevalentemente Nuvoloso
Condizioni




Pressure
1025.92 (hPa) - 30.3 (inHG)
Visibility

10.0 (km) - 6.2 (miles)
   Temperature
5  °C
41°F
2  °C
Dewpoint
81  %
 Humidity
   Wind Speed
8  km/h
4  kts
5  mph
2.2  m/s
   Wind Direction
 350°
Due North
   Airport Data
LIPZ
Location Venice Marco Polo 26 km (16.16 mi)
Metar :LIPZ 060750Z 35004KT 9999 BKN035 05/02 Q1026 NOSIG
Fri 6th December 08:50 am
   Raw Metar Info
Raw METAR is the most common format in the world for the transmission of observational weather data. It is highly standardized through the International Civil Aviation Organization (ICAO), which allows it to be understood throughout most of the world.
   API Info
Data Provided by
https://www.checkwx.com/weather/LIPZ
   © Info
CSS/SVG/PHP scripts were developed by weather34.com for use in the weather34 template © 2015-2019

Guide Info provided by Metar-Wikipedia